Etusivu
METAR-TAF:

METAR-TAF

Lentoasemat :

Tarawa, Kiribati

Bonrikin kansainvälinen lentoasema

Leveyspiiri: 01-21N, Pituuspiiri: 172-55E, korkeus merenpinnasta: 2 m

Tämänhetkinen sää

Tämä raportti tehtiin 48 minuuttia sitten, kello 23.00 UTC
Tuuli 21 kn idästä
Lämpötila 30°C
Kosteus 70%
Ilmanpaine 1007 hPa
Näkyvyys 10 km tai enemmän
Hajanaisia pilviä 2000 ft:n korkeudessa

METAR: NGTA 182300Z 09021KT 9999 SCT020 30/24 Q1007

Aika: 13:48 (23:48 UTC)

Sääennuste

Tämä raportti tehtiin 47 minuuttia sitten, kello 23.01 UTC
Ennuste voimassa 19. päivästä klo 00 UTC - 19. päivään klo 24 UTC
Tuuli 20 kn idästä
Näkyvyys 10 km tai enemmän
Hajanaisia pilviä 1800 ft:n korkeudessa
Hajanaisia pilviä 10000 ft:n korkeudessa

TAF: NGTA 182301Z 1900/1924 10020KT 9999 SCT018 SCT100

Säähavainnot ja -ennusteet yli 4000 lentoasemalta (METAR- ja TAF-raportit).

Käytössä olevat sääasemat on merkitty karttaan keltaisilla ja punaisilla pisteillä.

Aseta hiiri pisteen päälle nähdäksesi sääaseman nimen.

Klikkaa sitten nähdäksesi säähavainnot ja -ennusteet.

Kartan vaihtaminen: klikkaa mustalla rastilla varustettuja vihreitä pisteitä, niin voit zoomata sisään; viivalla varustettua vihreää pistettä, niin voit zoomata ulos tai vihreitä nuolia, niin pääset viereisille kartoille.


METAR-TAF: